Time;durP1;ratioP1;P1;durP2;ratioP2;P2;SDS_P1;SDS_P2;PMS_P1;PMS_P2;Temp;Humidity;BMP_temperature;BMP_pressure;BME280_temperature;BME280_humidity;BME280_pressure;Samples;Min_cycle;Max_cycle;Signal;HPM_P1;HPM_P2
2024/03/12 00:00:16;;;;;;;10.13;6.95;;;;;;;;;;695772;28;1556;-69
2024/03/12 00:00:37;;;;;;;10.60;6.95;;;;;;;;;;694837;28;908;-69
2024/03/12 00:00:59;;;;;;;10.55;6.63;;;;;;;;;;693946;28;829;-68
2024/03/12 00:01:20;;;;;;;9.52;6.82;;;;;;;;;;693415;28;2248;-69
2024/03/12 00:01:40;;;;;;;12.40;6.87;;;;;;;;;;694942;28;4528;-68
2024/03/12 00:02:07;;;;;;;11.82;7.10;;;;;;;;;;693206;28;1034;-68
2024/03/12 00:02:28;;;;;;;10.07;6.63;;;;;;;;;;695819;28;987;-69
2024/03/12 00:02:50;;;;;;;9.35;6.45;;;;;;;;;;697545;28;849;-68
2024/03/12 00:03:11;;;;;;;9.27;6.45;;;;;;;;;;693446;28;2375;-68
2024/03/12 00:03:31;;;;;;;10.02;6.57;;;;;;;;;;691545;28;945;-69
2024/03/12 00:03:52;;;;;;;10.13;6.55;;;;;;;;;;692650;28;1138;-69
2024/03/12 00:04:12;;;;;;;10.95;6.72;;;;;;;;;;694190;28;1688;-69
2024/03/12 00:04:32;;;;;;;9.60;6.80;;;;;;;;;;694982;28;4315;-69
2024/03/12 00:04:53;;;;;;;10.07;6.70;;;;;;;;;;698332;28;935;-67
2024/03/12 00:05:18;;;;;;;9.52;6.70;;;;;;;;;;696557;28;1541;-68
2024/03/12 00:05:40;;;;;;;9.20;6.40;;;;;;;;;;697546;28;1961;-69
2024/03/12 00:06:01;;;;;;;10.63;6.63;;;;;;;;;;696901;28;1016;-69
2024/03/12 00:06:21;;;;;;;10.13;6.57;;;;;;;;;;694964;28;1703;-68
2024/03/12 00:06:42;;;;;;;9.50;6.63;;;;;;;;;;695720;28;913;-69
2024/03/12 00:07:02;;;;;;;9.48;6.70;;;;;;;;;;698094;28;1338;-69
2024/03/12 00:07:22;;;;;;;10.90;6.63;;;;;;;;;;694961;28;1900;-68
2024/03/12 00:07:43;;;;;;;12.20;6.87;;;;;;;;;;695679;28;4527;-68
2024/03/12 00:08:03;;;;;;;11.63;6.75;;;;;;;;;;694148;28;928;-68
2024/03/12 00:08:23;;;;;;;9.77;6.80;;;;;;;;;;694803;28;1578;-68
2024/03/12 00:08:43;;;;;;;9.05;6.57;;;;;;;;;;695018;28;1060;-68
2024/03/12 00:09:09;;;;;;;10.53;6.70;;;;;;;;;;694979;28;905;-68
2024/03/12 00:09:29;;;;;;;9.65;6.50;;;;;;;;;;695085;28;1264;-68
2024/03/12 00:09:50;;;;;;;9.50;6.70;;;;;;;;;;693764;28;932;-68
2024/03/12 00:10:15;;;;;;;10.20;6.57;;;;;;;;;;693781;28;3942;-68
2024/03/12 00:10:35;;;;;;;10.63;6.70;;;;;;;;;;699044;28;4529;-68
2024/03/12 00:10:55;;;;;;;10.00;6.50;;;;;;;;;;700034;28;924;-68
2024/03/12 00:11:15;;;;;;;10.23;6.70;;;;;;;;;;695574;28;2460;-68
2024/03/12 00:11:36;;;;;;;10.97;6.90;;;;;;;;;;698433;28;916;-68
2024/03/12 00:11:56;;;;;;;12.33;7.00;;;;;;;;;;696576;28;940;-70
2024/03/12 00:12:17;;;;;;;13.15;6.95;;;;;;;;;;695456;28;1685;-68
2024/03/12 00:12:38;;;;;;;11.35;7.10;;;;;;;;;;697259;28;988;-69
2024/03/12 00:13:01;;;;;;;11.45;7.25;;;;;;;;;;697328;28;826;-69
2024/03/12 00:13:23;;;;;;;11.70;6.80;;;;;;;;;;696561;28;1210;-69
2024/03/12 00:13:43;;;;;;;10.00;6.90;;;;;;;;;;698248;28;4254;-69
2024/03/12 00:14:03;;;;;;;10.33;7.13;;;;;;;;;;695464;28;1266;-69
2024/03/12 00:14:24;;;;;;;10.57;7.28;;;;;;;;;;696559;28;1875;-68
2024/03/12 00:14:44;;;;;;;10.07;7.17;;;;;;;;;;698431;28;1274;-69
2024/03/12 00:15:05;;;;;;;10.63;7.03;;;;;;;;;;698743;28;925;-69
2024/03/12 00:15:26;;;;;;;9.83;6.33;;;;;;;;;;694960;28;805;-69
2024/03/12 00:15:46;;;;;;;10.43;6.60;;;;;;;;;;694511;28;979;-68
2024/03/12 00:16:07;;;;;;;10.65;7.10;;;;;;;;;;693057;28;2069;-69
2024/03/12 00:16:28;;;;;;;10.40;7.00;;;;;;;;;;694273;28;889;-68
2024/03/12 00:16:48;;;;;;;11.63;7.00;;;;;;;;;;697459;28;5072;-68
2024/03/12 00:17:08;;;;;;;12.38;7.18;;;;;;;;;;696273;28;1027;-68
2024/03/12 00:17:29;;;;;;;11.53;7.23;;;;;;;;;;694175;28;1285;-69
2024/03/12 00:17:50;;;;;;;10.30;6.97;;;;;;;;;;694576;28;1340;-69
2024/03/12 00:18:10;;;;;;;10.57;6.78;;;;;;;;;;695145;28;934;-68
2024/03/12 00:18:32;;;;;;;11.10;7.10;;;;;;;;;;696936;28;833;-69
2024/03/12 00:18:54;;;;;;;9.65;6.90;;;;;;;;;;696715;28;936;-68
2024/03/12 00:19:17;;;;;;;10.45;7.10;;;;;;;;;;696348;28;2542;-68
2024/03/12 00:19:37;;;;;;;10.20;6.90;;;;;;;;;;695510;28;4430;-68
2024/03/12 00:19:59;;;;;;;9.50;7.10;;;;;;;;;;696936;28;920;-68
2024/03/12 00:20:35;;;;;;;10.25;6.95;;;;;;;;;;695906;28;2365;-69
2024/03/12 00:20:55;;;;;;;11.48;7.22;;;;;;;;;;697077;28;976;-68
2024/03/12 00:21:15;;;;;;;14.57;7.60;;;;;;;;;;696522;28;1519;-68
2024/03/12 00:21:37;;;;;;;10.98;7.32;;;;;;;;;;696853;28;874;-68
2024/03/12 00:21:57;;;;;;;9.95;6.85;;;;;;;;;;696993;28;1000;-68
2024/03/12 00:22:17;;;;;;;10.97;7.27;;;;;;;;;;695361;28;2411;-68
2024/03/12 00:22:39;;;;;;;10.55;6.85;;;;;;;;;;696378;28;4276;-69
2024/03/12 00:22:59;;;;;;;11.05;7.13;;;;;;;;;;697837;28;1031;-69
2024/03/12 00:23:22;;;;;;;11.10;7.10;;;;;;;;;;695105;28;1489;-68
2024/03/12 00:23:42;;;;;;;12.00;7.22;;;;;;;;;;695913;28;853;-69
2024/03/12 00:24:03;;;;;;;11.13;7.40;;;;;;;;;;695919;28;1224;-68
2024/03/12 00:24:24;;;;;;;11.60;7.13;;;;;;;;;;695263;28;3145;-68
2024/03/12 00:24:46;;;;;;;12.67;7.33;;;;;;;;;;696585;28;979;-68
2024/03/12 00:25:08;;;;;;;13.23;7.88;;;;;;;;;;697176;28;1284;-68
2024/03/12 00:25:30;;;;;;;12.18;7.88;;;;;;;;;;696946;28;4446;-68
2024/03/12 00:25:50;;;;;;;11.90;7.43;;;;;;;;;;697203;28;916;-68
2024/03/12 00:26:11;;;;;;;11.67;7.20;;;;;;;;;;696846;28;1096;-68
2024/03/12 00:26:32;;;;;;;13.40;7.33;;;;;;;;;;699986;28;1344;-68
2024/03/12 00:26:53;;;;;;;11.57;7.47;;;;;;;;;;699445;28;1034;-68
2024/03/12 00:27:13;;;;;;;10.30;7.03;;;;;;;;;;698888;28;3075;-68
2024/03/12 00:27:33;;;;;;;11.57;7.47;;;;;;;;;;700017;28;1005;-68
2024/03/12 00:27:57;;;;;;;12.03;7.30;;;;;;;;;;698605;28;893;-69
2024/03/12 00:28:17;;;;;;;11.13;7.35;;;;;;;;;;699551;28;2185;-69
2024/03/12 00:28:38;;;;;;;9.93;6.87;;;;;;;;;;696992;28;4414;-68
2024/03/12 00:28:59;;;;;;;10.65;7.28;;;;;;;;;;697446;28;967;-68
2024/03/12 00:29:19;;;;;;;11.07;7.50;;;;;;;;;;695421;28;1016;-68
2024/03/12 00:29:39;;;;;;;10.43;7.00;;;;;;;;;;697136;28;1130;-69
2024/03/12 00:29:59;;;;;;;10.98;7.30;;;;;;;;;;696465;28;963;-69
2024/03/12 00:30:24;;;;;;;11.17;7.33;;;;;;;;;;695735;28;2201;-68
2024/03/12 00:30:45;;;;;;;12.73;7.25;;;;;;;;;;696762;28;1011;-68
2024/03/12 00:31:05;;;;;;;11.53;7.30;;;;;;;;;;697306;28;1396;-68
2024/03/12 00:31:25;;;;;;;10.52;7.07;;;;;;;;;;695558;28;2223;-68
2024/03/12 00:31:45;;;;;;;10.10;6.93;;;;;;;;;;696661;28;4407;-69
2024/03/12 00:32:07;;;;;;;11.33;7.60;;;;;;;;;;696876;28;916;-69
2024/03/12 00:32:28;;;;;;;11.00;7.43;;;;;;;;;;696981;28;999;-69
2024/03/12 00:32:49;;;;;;;11.07;7.18;;;;;;;;;;697132;28;992;-68
2024/03/12 00:33:10;;;;;;;12.95;7.13;;;;;;;;;;696708;28;1893;-69
2024/03/12 00:33:30;;;;;;;14.57;7.67;;;;;;;;;;697591;28;975;-69
2024/03/12 00:33:50;;;;;;;11.40;7.32;;;;;;;;;;697697;28;827;-69
2024/03/12 00:34:11;;;;;;;11.33;7.47;;;;;;;;;;695059;28;2208;-69
2024/03/12 00:34:31;;;;;;;11.15;7.65;;;;;;;;;;697179;28;4306;-68
2024/03/12 00:34:51;;;;;;;12.93;7.80;;;;;;;;;;696743;28;1292;-69
2024/03/12 00:35:11;;;;;;;13.40;7.73;;;;;;;;;;694701;28;2484;-69
2024/03/12 00:35:35;;;;;;;11.75;7.78;;;;;;;;;;696692;28;857;-69
2024/03/12 00:35:57;;;;;;;11.57;7.80;;;;;;;;;;696685;28;908;-68
2024/03/12 00:36:20;;;;;;;12.88;8.40;;;;;;;;;;694923;28;2167;-68
2024/03/12 00:36:41;;;;;;;12.40;8.40;;;;;;;;;;696773;28;1431;-68
2024/03/12 00:37:03;;;;;;;12.45;7.82;;;;;;;;;;696500;28;959;-69
2024/03/12 00:37:24;;;;;;;12.98;8.07;;;;;;;;;;696099;28;1434;-68
2024/03/12 00:37:46;;;;;;;14.00;8.17;;;;;;;;;;696819;28;4323;-68
2024/03/12 00:38:07;;;;;;;13.43;8.02;;;;;;;;;;697536;28;960;-68
2024/03/12 00:38:29;;;;;;;11.97;8.40;;;;;;;;;;692629;28;2533;-68
2024/03/12 00:38:49;;;;;;;11.73;7.70;;;;;;;;;;693705;28;1182;-69
2024/03/12 00:39:10;;;;;;;11.75;8.05;;;;;;;;;;693180;28;1030;-68
2024/03/12 00:39:30;;;;;;;12.52;7.88;;;;;;;;;;694289;28;1114;-68
2024/03/12 00:39:50;;;;;;;13.03;8.40;;;;;;;;;;697535;28;1355;-68
2024/03/12 00:40:11;;;;;;;13.30;8.63;;;;;;;;;;695918;28;2469;-68
2024/03/12 00:40:36;;;;;;;14.27;9.27;;;;;;;;;;696541;28;4264;-69
2024/03/12 00:40:57;;;;;;;14.43;9.82;;;;;;;;;;697228;28;1003;-68
2024/03/12 00:41:17;;;;;;;12.68;8.40;;;;;;;;;;694800;28;1991;-68
2024/03/12 00:41:38;;;;;;;13.30;8.50;;;;;;;;;;697259;28;1053;-69
2024/03/12 00:41:58;;;;;;;14.07;8.55;;;;;;;;;;696759;28;876;-69
2024/03/12 00:42:18;;;;;;;14.40;9.03;;;;;;;;;;696933;28;2234;-68
2024/03/12 00:42:39;;;;;;;16.03;9.67;;;;;;;;;;697476;28;849;-68
2024/03/12 00:43:00;;;;;;;15.93;9.43;;;;;;;;;;697311;28;825;-68
2024/03/12 00:43:20;;;;;;;14.07;9.07;;;;;;;;;;695264;28;2022;-68
2024/03/12 00:43:42;;;;;;;14.73;9.80;;;;;;;;;;696434;28;4414;-68
2024/03/12 00:44:02;;;;;;;16.02;9.73;;;;;;;;;;694046;28;1544;-68
2024/03/12 00:44:23;;;;;;;15.10;9.15;;;;;;;;;;692538;28;1274;-68
2024/03/12 00:44:48;;;;;;;14.57;9.77;;;;;;;;;;693238;28;833;-68
2024/03/12 00:45:11;;;;;;;15.38;9.57;;;;;;;;;;693323;28;990;-69
2024/03/12 00:45:38;;;;;;;16.05;10.00;;;;;;;;;;693729;28;1902;-69
2024/03/12 00:45:59;;;;;;;15.50;9.73;;;;;;;;;;697927;28;881;-68
2024/03/12 00:46:21;;;;;;;15.93;10.45;;;;;;;;;;695943;28;1700;-68
2024/03/12 00:46:41;;;;;;;17.60;10.43;;;;;;;;;;698293;28;4387;-68
2024/03/12 00:47:01;;;;;;;18.00;10.75;;;;;;;;;;699127;28;742;-68
2024/03/12 00:47:21;;;;;;;16.97;10.37;;;;;;;;;;696415;28;2371;-69
2024/03/12 00:47:42;;;;;;;15.23;10.00;;;;;;;;;;698617;28;850;-68
2024/03/12 00:48:03;;;;;;;14.77;9.93;;;;;;;;;;697736;28;920;-68
2024/03/12 00:48:25;;;;;;;15.82;10.10;;;;;;;;;;695681;28;2162;-68
2024/03/12 00:48:46;;;;;;;16.58;10.50;;;;;;;;;;696109;28;933;-68
2024/03/12 00:49:07;;;;;;;18.33;10.27;;;;;;;;;;696012;28;3618;-68
2024/03/12 00:49:30;;;;;;;18.23;10.43;;;;;;;;;;696441;28;2410;-68
2024/03/12 00:49:50;;;;;;;18.08;10.43;;;;;;;;;;697899;28;4754;-69
2024/03/12 00:50:11;;;;;;;18.13;10.63;;;;;;;;;;695354;28;2208;-68
2024/03/12 00:50:32;;;;;;;17.70;10.93;;;;;;;;;;696134;28;794;-69
2024/03/12 00:50:53;;;;;;;18.80;11.80;;;;;;;;;;696993;28;869;-68
2024/03/12 00:51:15;;;;;;;19.02;11.50;;;;;;;;;;697034;28;2509;-68
2024/03/12 00:51:35;;;;;;;19.25;11.15;;;;;;;;;;697644;28;885;-68
2024/03/12 00:51:56;;;;;;;20.57;11.03;;;;;;;;;;696530;28;1218;-69
2024/03/12 00:52:17;;;;;;;19.40;11.27;;;;;;;;;;696386;28;1724;-69
2024/03/12 00:52:41;;;;;;;18.60;11.00;;;;;;;;;;694004;28;4430;-68
2024/03/12 00:53:02;;;;;;;20.17;11.60;;;;;;;;;;694251;28;892;-69
2024/03/12 00:53:23;;;;;;;18.92;11.57;;;;;;;;;;693939;28;2425;-68
2024/03/12 00:53:44;;;;;;;18.63;11.15;;;;;;;;;;693687;28;1118;-68
2024/03/12 00:54:05;;;;;;;19.10;11.57;;;;;;;;;;695732;28;1658;-68
2024/03/12 00:54:25;;;;;;;20.00;11.80;;;;;;;;;;697518;28;1731;-68
2024/03/12 00:54:45;;;;;;;19.40;11.60;;;;;;;;;;697987;28;3403;-69
2024/03/12 00:55:09;;;;;;;20.90;12.13;;;;;;;;;;699378;28;1068;-69
2024/03/12 00:55:29;;;;;;;19.83;11.70;;;;;;;;;;698557;28;4314;-68
2024/03/12 00:55:50;;;;;;;20.13;11.95;;;;;;;;;;699057;28;917;-69
2024/03/12 00:56:10;;;;;;;18.83;11.67;;;;;;;;;;695753;28;1491;-69
2024/03/12 00:56:32;;;;;;;20.07;11.37;;;;;;;;;;696417;28;902;-68
2024/03/12 00:56:53;;;;;;;21.80;11.35;;;;;;;;;;697587;28;1002;-69
2024/03/12 00:57:13;;;;;;;20.43;12.00;;;;;;;;;;695581;28;1778;-68
2024/03/12 00:57:38;;;;;;;19.10;11.60;;;;;;;;;;696269;28;997;-69
2024/03/12 00:57:59;;;;;;;19.75;11.43;;;;;;;;;;698124;28;900;-68
2024/03/12 00:58:20;;;;;;;19.93;11.77;;;;;;;;;;695024;28;2139;-69
2024/03/12 00:58:40;;;;;;;20.65;12.10;;;;;;;;;;697016;28;4722;-69
2024/03/12 00:59:01;;;;;;;22.65;12.27;;;;;;;;;;697823;28;869;-68
2024/03/12 00:59:21;;;;;;;20.48;12.20;;;;;;;;;;696294;28;1001;-68
2024/03/12 00:59:42;;;;;;;19.73;12.37;;;;;;;;;;697017;28;956;-69
2024/03/12 01:00:03;;;;;;;20.70;12.60;;;;;;;;;;698069;28;900;-69
2024/03/12 01:00:28;;;;;;;20.40;12.18;;;;;;;;;;698232;28;1792;-68
2024/03/12 01:00:49;;;;;;;21.13;12.15;;;;;;;;;;700544;28;1042;-68
2024/03/12 01:01:14;;;;;;;21.83;12.32;;;;;;;;;;698304;28;955;-68
2024/03/12 01:01:34;;;;;;;23.35;13.23;;;;;;;;;;697809;28;4293;-69
2024/03/12 01:01:55;;;;;;;23.48;13.18;;;;;;;;;;697782;28;915;-68
2024/03/12 01:02:19;;;;;;;22.57;12.67;;;;;;;;;;696324;28;1534;-68
2024/03/12 01:02:39;;;;;;;22.85;13.20;;;;;;;;;;696009;28;960;-68
2024/03/12 01:03:00;;;;;;;21.75;12.90;;;;;;;;;;697318;28;789;-68
2024/03/12 01:03:20;;;;;;;21.15;12.77;;;;;;;;;;695020;28;2328;-68
2024/03/12 01:03:42;;;;;;;22.07;12.97;;;;;;;;;;696649;28;1233;-68
2024/03/12 01:04:03;;;;;;;20.63;12.20;;;;;;;;;;696735;28;963;-69
2024/03/12 01:04:23;;;;;;;21.10;12.67;;;;;;;;;;695578;28;2176;-68
2024/03/12 01:04:45;;;;;;;22.53;13.03;;;;;;;;;;695484;28;4256;-68
2024/03/12 01:05:07;;;;;;;21.63;13.57;;;;;;;;;;695690;28;836;-68
2024/03/12 01:05:30;;;;;;;20.27;12.57;;;;;;;;;;696097;28;2902;-69
2024/03/12 01:05:50;;;;;;;23.38;12.98;;;;;;;;;;696347;28;984;-68
2024/03/12 01:06:11;;;;;;;22.43;12.63;;;;;;;;;;699073;28;1020;-69
2024/03/12 01:06:34;;;;;;;22.23;12.60;;;;;;;;;;698138;28;897;-68
2024/03/12 01:06:59;;;;;;;21.05;12.35;;;;;;;;;;697089;28;1380;-68
2024/03/12 01:07:21;;;;;;;20.80;12.18;;;;;;;;;;693392;28;1685;-68
2024/03/12 01:07:43;;;;;;;19.95;12.60;;;;;;;;;;692640;28;4303;-68
2024/03/12 01:08:05;;;;;;;20.90;12.98;;;;;;;;;;692899;28;873;-68
2024/03/12 01:08:26;;;;;;;20.08;12.43;;;;;;;;;;689896;28;1452;-68
2024/03/12 01:08:46;;;;;;;21.17;13.00;;;;;;;;;;691730;28;1390;-68
2024/03/12 01:09:07;;;;;;;24.40;13.17;;;;;;;;;;689887;28;794;-69
2024/03/12 01:09:28;;;;;;;24.25;13.10;;;;;;;;;;690629;28;1496;-68
2024/03/12 01:09:49;;;;;;;24.02;13.10;;;;;;;;;;691319;28;1197;-69
2024/03/12 01:10:09;;;;;;;22.63;12.87;;;;;;;;;;691695;28;1315;-68
2024/03/12 01:10:30;;;;;;;22.25;13.52;;;;;;;;;;688463;28;4335;-68
2024/03/12 01:10:51;;;;;;;22.80;13.15;;;;;;;;;;693189;28;917;-69
2024/03/12 01:11:12;;;;;;;21.90;13.17;;;;;;;;;;694025;28;977;-69
2024/03/12 01:11:33;;;;;;;22.08;13.70;;;;;;;;;;695730;28;802;-68
2024/03/12 01:11:55;;;;;;;21.70;13.82;;;;;;;;;;695191;28;802;-68
2024/03/12 01:12:15;;;;;;;21.70;13.40;;;;;;;;;;696351;28;1792;-68
2024/03/12 01:12:37;;;;;;;21.05;12.80;;;;;;;;;;696668;28;1219;-68
2024/03/12 01:13:01;;;;;;;22.20;12.77;;;;;;;;;;697995;28;1352;-68
2024/03/12 01:13:24;;;;;;;23.15;12.88;;;;;;;;;;694178;28;1585;-68
2024/03/12 01:13:47;;;;;;;22.63;13.32;;;;;;;;;;694013;28;4339;-68
2024/03/12 01:14:08;;;;;;;23.02;12.93;;;;;;;;;;696298;28;1241;-68
2024/03/12 01:14:28;;;;;;;23.08;12.90;;;;;;;;;;694227;28;1484;-67
2024/03/12 01:14:49;;;;;;;23.95;12.93;;;;;;;;;;697120;28;860;-68
2024/03/12 01:15:10;;;;;;;22.67;12.82;;;;;;;;;;695656;28;905;-68
2024/03/12 01:15:31;;;;;;;21.92;12.65;;;;;;;;;;692050;28;2102;-68
2024/03/12 01:15:53;;;;;;;23.08;13.45;;;;;;;;;;694273;28;991;-68
2024/03/12 01:16:14;;;;;;;23.25;13.20;;;;;;;;;;690755;28;937;-68
2024/03/12 01:16:36;;;;;;;21.85;13.13;;;;;;;;;;690585;28;4503;-68
2024/03/12 01:16:57;;;;;;;25.13;13.52;;;;;;;;;;696627;28;862;-67
2024/03/12 01:17:20;;;;;;;25.92;13.60;;;;;;;;;;694444;28;1544;-68
2024/03/12 01:17:42;;;;;;;21.95;12.55;;;;;;;;;;693319;28;1373;-67
2024/03/12 01:18:03;;;;;;;23.45;12.70;;;;;;;;;;693886;28;1026;-68
2024/03/12 01:18:25;;;;;;;23.90;12.85;;;;;;;;;;692823;28;1495;-68
2024/03/12 01:18:46;;;;;;;23.48;13.38;;;;;;;;;;696259;28;924;-68
2024/03/12 01:19:07;;;;;;;21.55;13.25;;;;;;;;;;693496;28;1360;-69
2024/03/12 01:19:29;;;;;;;21.52;13.10;;;;;;;;;;691804;28;1461;-68
2024/03/12 01:19:50;;;;;;;22.70;13.63;;;;;;;;;;687796;28;6653;-68
2024/03/12 01:20:16;;;;;;;23.10;13.60;;;;;;;;;;692853;28;914;-68
2024/03/12 01:20:37;;;;;;;22.58;13.73;;;;;;;;;;691311;28;916;-68
2024/03/12 01:20:58;;;;;;;22.40;13.53;;;;;;;;;;694913;28;932;-68
2024/03/12 01:21:20;;;;;;;24.05;13.13;;;;;;;;;;694806;28;1754;-68
2024/03/12 01:21:40;;;;;;;25.00;13.70;;;;;;;;;;695511;28;845;-68
2024/03/12 01:22:04;;;;;;;23.13;13.50;;;;;;;;;;697384;28;834;-68
2024/03/12 01:22:24;;;;;;;21.85;13.25;;;;;;;;;;695350;28;1891;-68
2024/03/12 01:22:45;;;;;;;22.52;13.52;;;;;;;;;;697414;28;4458;-69
2024/03/12 01:23:05;;;;;;;24.23;13.60;;;;;;;;;;696024;28;1021;-68
2024/03/12 01:23:26;;;;;;;22.70;13.18;;;;;;;;;;695347;28;2288;-68
2024/03/12 01:23:48;;;;;;;22.85;13.50;;;;;;;;;;697129;28;1134;-68
2024/03/12 01:24:08;;;;;;;23.00;13.68;;;;;;;;;;697957;28;1103;-69
2024/03/12 01:24:28;;;;;;;23.13;13.63;;;;;;;;;;695550;28;1697;-69
2024/03/12 01:24:49;;;;;;;25.47;13.90;;;;;;;;;;696978;28;1300;-69
2024/03/12 01:25:10;;;;;;;25.50;13.77;;;;;;;;;;697650;28;813;-68
2024/03/12 01:25:30;;;;;;;24.95;14.10;;;;;;;;;;696382;28;4544;-68
2024/03/12 01:25:50;;;;;;;23.53;13.73;;;;;;;;;;697453;28;805;-68
2024/03/12 01:26:12;;;;;;;23.80;13.43;;;;;;;;;;697675;28;864;-69
2024/03/12 01:26:34;;;;;;;25.40;14.43;;;;;;;;;;694830;28;1461;-68
2024/03/12 01:26:55;;;;;;;27.50;14.02;;;;;;;;;;696462;28;972;-68
2024/03/12 01:27:15;;;;;;;24.92;14.02;;;;;;;;;;695483;28;943;-69
2024/03/12 01:27:36;;;;;;;22.27;13.10;;;;;;;;;;695913;28;948;-67
2024/03/12 01:27:56;;;;;;;22.23;13.70;;;;;;;;;;697257;28;987;-68
2024/03/12 01:28:17;;;;;;;24.80;14.27;;;;;;;;;;696169;28;1586;-69
2024/03/12 01:28:37;;;;;;;25.02;14.80;;;;;;;;;;696800;28;4408;-68
2024/03/12 01:28:58;;;;;;;25.37;15.17;;;;;;;;;;697669;28;888;-67
2024/03/12 01:29:18;;;;;;;27.63;15.47;;;;;;;;;;696044;28;2485;-67
2024/03/12 01:29:39;;;;;;;27.13;15.73;;;;;;;;;;697435;28;1215;-67
2024/03/12 01:30:00;;;;;;;26.97;15.67;;;;;;;;;;697593;28;955;-67
2024/03/12 01:30:26;;;;;;;26.33;15.27;;;;;;;;;;696354;28;2321;-68
2024/03/12 01:30:46;;;;;;;27.77;16.05;;;;;;;;;;691945;28;873;-68
2024/03/12 01:31:07;;;;;;;28.30;15.60;;;;;;;;;;692293;28;771;-68
2024/03/12 01:31:27;;;;;;;28.93;15.80;;;;;;;;;;689975;28;1176;-69
2024/03/12 01:31:49;;;;;;;30.00;16.65;;;;;;;;;;691563;28;5204;-68
2024/03/12 01:32:09;;;;;;;30.02;16.65;;;;;;;;;;694215;28;935;-67
2024/03/12 01:32:30;;;;;;;28.77;16.20;;;;;;;;;;691240;28;2464;-68
2024/03/12 01:32:51;;;;;;;30.63;16.95;;;;;;;;;;694659;28;853;-67
2024/03/12 01:33:11;;;;;;;28.88;16.73;;;;;;;;;;694914;28;1265;-68
2024/03/12 01:33:31;;;;;;;30.27;16.80;;;;;;;;;;696261;28;1785;-68
2024/03/12 01:33:52;;;;;;;30.17;17.23;;;;;;;;;;696605;28;984;-68
2024/03/12 01:34:12;;;;;;;32.03;17.47;;;;;;;;;;693917;28;1338;-67
2024/03/12 01:34:34;;;;;;;33.20;17.73;;;;;;;;;;690974;28;4477;-68
2024/03/12 01:34:54;;;;;;;33.33;17.67;;;;;;;;;;690803;28;980;-68
2024/03/12 01:35:14;;;;;;;32.60;17.77;;;;;;;;;;689455;28;2210;-69
2024/03/12 01:35:37;;;;;;;32.50;18.25;;;;;;;;;;692550;28;958;-68
2024/03/12 01:36:05;;;;;;;32.88;17.63;;;;;;;;;;693156;28;921;-67
2024/03/12 01:36:34;;;;;;;32.42;18.27;;;;;;;;;;692046;28;2325;-68
2024/03/12 01:36:55;;;;;;;34.78;18.00;;;;;;;;;;695223;28;1415;-68
2024/03/12 01:37:15;;;;;;;33.73;17.80;;;;;;;;;;696324;28;1138;-68
2024/03/12 01:37:36;;;;;;;34.55;17.60;;;;;;;;;;692749;28;4420;-68
2024/03/12 01:37:57;;;;;;;32.72;18.42;;;;;;;;;;690342;28;1214;-68
2024/03/12 01:38:17;;;;;;;33.43;18.03;;;;;;;;;;691230;28;1796;-67
2024/03/12 01:38:39;;;;;;;31.65;17.27;;;;;;;;;;692572;28;969;-67
2024/03/12 01:39:03;;;;;;;32.27;17.63;;;;;;;;;;694919;28;1248;-68
2024/03/12 01:39:28;;;;;;;31.48;17.63;;;;;;;;;;692588;28;1753;-67
2024/03/12 01:39:52;;;;;;;33.45;18.20;;;;;;;;;;692823;28;905;-68
2024/03/12 01:40:19;;;;;;;32.08;18.10;;;;;;;;;;693485;28;929;-67
2024/03/12 01:40:41;;;;;;;33.58;19.17;;;;;;;;;;695036;28;4387;-68
2024/03/12 01:41:01;;;;;;;32.40;19.20;;;;;;;;;;696905;28;1340;-67
2024/03/12 01:41:21;;;;;;;32.97;18.77;;;;;;;;;;691720;28;2451;-68
2024/03/12 01:41:42;;;;;;;33.17;18.95;;;;;;;;;;695059;28;1210;-68
2024/03/12 01:42:03;;;;;;;35.33;19.63;;;;;;;;;;694067;28;1221;-68
2024/03/12 01:42:24;;;;;;;33.83;18.85;;;;;;;;;;694204;28;2288;-68
2024/03/12 01:42:52;;;;;;;35.53;19.77;;;;;;;;;;695037;28;917;-67
2024/03/12 01:43:12;;;;;;;35.63;19.65;;;;;;;;;;695497;28;1031;-67
2024/03/12 01:43:35;;;;;;;33.72;19.55;;;;;;;;;;692983;28;4326;-68
2024/03/12 01:44:02;;;;;;;36.15;19.40;;;;;;;;;;696351;28;881;-67
2024/03/12 01:44:23;;;;;;;35.55;19.45;;;;;;;;;;691966;28;1897;-67
2024/03/12 01:44:44;;;;;;;34.85;18.70;;;;;;;;;;690654;28;821;-67
2024/03/12 01:45:05;;;;;;;34.92;19.13;;;;;;;;;;694092;28;979;-67
2024/03/12 01:45:27;;;;;;;36.45;19.92;;;;;;;;;;694796;28;3695;-67
2024/03/12 01:45:49;;;;;;;34.53;18.75;;;;;;;;;;698280;28;1917;-68
2024/03/12 01:46:10;;;;;;;36.08;18.80;;;;;;;;;;697164;28;876;-68
2024/03/12 01:46:33;;;;;;;37.67;19.63;;;;;;;;;;695903;28;4261;-67
2024/03/12 01:46:54;;;;;;;36.97;19.95;;;;;;;;;;695932;28;1212;-67
2024/03/12 01:47:17;;;;;;;38.17;20.13;;;;;;;;;;693496;28;1448;-69
2024/03/12 01:47:38;;;;;;;37.55;21.10;;;;;;;;;;694604;28;842;-69
2024/03/12 01:48:03;;;;;;;37.72;21.05;;;;;;;;;;691890;28;784;-68
2024/03/12 01:48:24;;;;;;;40.42;21.45;;;;;;;;;;689932;28;1472;-67
2024/03/12 01:48:45;;;;;;;40.03;20.58;;;;;;;;;;692703;28;857;-67
2024/03/12 01:49:09;;;;;;;38.63;20.25;;;;;;;;;;698119;28;758;-67
2024/03/12 01:49:31;;;;;;;41.05;20.67;;;;;;;;;;691985;28;4544;-68
2024/03/12 01:49:54;;;;;;;37.28;19.98;;;;;;;;;;697265;28;884;-67
2024/03/12 01:50:18;;;;;;;36.40;20.48;;;;;;;;;;696111;28;853;-67
2024/03/12 01:50:39;;;;;;;38.53;20.38;;;;;;;;;;692092;28;1438;-67
2024/03/12 01:50:59;;;;;;;37.53;20.88;;;;;;;;;;692535;28;928;-67
2024/03/12 01:51:21;;;;;;;38.87;21.03;;;;;;;;;;693751;28;1570;-68
2024/03/12 01:51:43;;;;;;;40.25;21.20;;;;;;;;;;688573;28;1406;-67
2024/03/12 01:52:07;;;;;;;40.03;21.15;;;;;;;;;;685968;28;1417;-67
2024/03/12 01:52:29;;;;;;;40.55;21.58;;;;;;;;;;686377;28;1055;-68
2024/03/12 01:52:53;;;;;;;40.30;21.70;;;;;;;;;;688876;28;4642;-68
2024/03/12 01:53:14;;;;;;;40.90;22.15;;;;;;;;;;687848;28;1064;-67
2024/03/12 01:53:35;;;;;;;38.03;21.63;;;;;;;;;;688635;28;1652;-68
2024/03/12 01:53:57;;;;;;;39.45;21.50;;;;;;;;;;693670;28;1192;-68
2024/03/12 01:54:18;;;;;;;39.90;21.52;;;;;;;;;;694972;28;1164;-67
2024/03/12 01:54:40;;;;;;;38.72;21.38;;;;;;;;;;696589;28;950;-68
2024/03/12 01:55:01;;;;;;;41.38;22.17;;;;;;;;;;696129;28;1044;-67
2024/03/12 01:55:23;;;;;;;39.78;22.15;;;;;;;;;;695076;28;1736;-67
2024/03/12 01:55:44;;;;;;;40.22;22.20;;;;;;;;;;693249;28;4635;-67
2024/03/12 01:56:09;;;;;;;38.55;21.77;;;;;;;;;;698148;28;874;-67
2024/03/12 01:56:33;;;;;;;41.50;21.92;;;;;;;;;;696684;28;1396;-67
2024/03/12 01:56:54;;;;;;;40.70;21.70;;;;;;;;;;697102;28;1073;-67
2024/03/12 01:57:15;;;;;;;42.57;22.20;;;;;;;;;;697013;28;1236;-68
2024/03/12 01:57:39;;;;;;;40.83;22.13;;;;;;;;;;696872;28;1270;-67
2024/03/12 01:58:01;;;;;;;43.60;22.27;;;;;;;;;;696254;28;874;-67
2024/03/12 01:58:22;;;;;;;42.80;22.00;;;;;;;;;;694297;28;1240;-67
2024/03/12 01:58:44;;;;;;;42.60;22.67;;;;;;;;;;691685;28;4488;-68
2024/03/12 01:59:05;;;;;;;43.97;23.10;;;;;;;;;;694288;28;4784;-67
2024/03/12 01:59:26;;;;;;;43.17;22.33;;;;;;;;;;692713;28;1453;-67
2024/03/12 01:59:47;;;;;;;42.85;22.85;;;;;;;;;;695262;28;920;-68
2024/03/12 02:00:18;;;;;;;43.13;23.60;;;;;;;;;;695448;28;920;-68
2024/03/12 02:00:39;;;;;;;41.25;22.38;;;;;;;;;;695032;28;888;-68
2024/03/12 02:01:00;;;;;;;43.13;22.33;;;;;;;;;;695319;28;1375;-67
2024/03/12 02:01:22;;;;;;;41.90;22.50;;;;;;;;;;694124;28;1331;-67
2024/03/12 02:01:44;;;;;;;43.05;23.08;;;;;;;;;;696400;28;4453;-67
2024/03/12 02:02:07;;;;;;;47.03;23.58;;;;;;;;;;691303;28;1195;-68
2024/03/12 02:02:28;;;;;;;44.37;23.47;;;;;;;;;;689568;28;934;-68
2024/03/12 02:02:53;;;;;;;43.55;23.90;;;;;;;;;;687554;28;1364;-67
2024/03/12 02:03:18;;;;;;;43.42;23.20;;;;;;;;;;687806;28;820;-67
2024/03/12 02:03:39;;;;;;;43.70;23.17;;;;;;;;;;683767;28;985;-68
2024/03/12 02:04:00;;;;;;;45.25;23.65;;;;;;;;;;689118;28;1399;-67
2024/03/12 02:04:22;;;;;;;43.72;23.55;;;;;;;;;;689100;28;1473;-68
2024/03/12 02:04:44;;;;;;;45.50;23.70;;;;;;;;;;688545;28;4545;-65
2024/03/12 02:05:05;;;;;;;47.55;23.77;;;;;;;;;;690656;28;829;-68
2024/03/12 02:05:26;;;;;;;45.55;23.95;;;;;;;;;;689300;28;999;-68
2024/03/12 02:05:47;;;;;;;42.95;23.40;;;;;;;;;;692400;28;1967;-68
2024/03/12 02:06:09;;;;;;;43.63;23.48;;;;;;;;;;693614;28;813;-68
2024/03/12 02:06:29;;;;;;;45.05;23.85;;;;;;;;;;692596;28;1095;-68
2024/03/12 02:06:50;;;;;;;40.23;23.00;;;;;;;;;;693583;28;821;-67
2024/03/12 02:07:11;;;;;;;42.50;23.38;;;;;;;;;;693663;28;1226;-68
2024/03/12 02:07:36;;;;;;;45.90;23.92;;;;;;;;;;693985;28;4352;-67
2024/03/12 02:07:57;;;;;;;42.47;22.92;;;;;;;;;;697537;28;821;-68
2024/03/12 02:08:19;;;;;;;43.17;22.83;;;;;;;;;;697165;28;1430;-68
2024/03/12 02:08:41;;;;;;;43.55;23.52;;;;;;;;;;694462;28;857;-67
2024/03/12 02:09:04;;;;;;;42.92;23.55;;;;;;;;;;694545;28;1403;-67
2024/03/12 02:09:26;;;;;;;43.10;22.95;;;;;;;;;;694028;28;942;-68
2024/03/12 02:09:47;;;;;;;42.90;23.30;;;;;;;;;;693960;28;852;-68
2024/03/12 02:10:09;;;;;;;43.60;23.42;;;;;;;;;;694443;28;786;-68
2024/03/12 02:10:30;;;;;;;44.65;23.75;;;;;;;;;;692382;28;4309;-67